sensor_id;sensor_type;location;lat;lon;timestamp;pressure;altitude;pressure_sealevel;temperature;humidity
32933;BME280;19444;50.518;10.870;2023-05-24T00:02:26;96873.97;;;9.00;100.00
32933;BME280;19444;50.518;10.870;2023-05-24T00:05:24;96868.56;;;9.05;100.00
32933;BME280;19444;50.518;10.870;2023-05-24T00:08:21;96868.72;;;8.47;100.00
32933;BME280;19444;50.518;10.870;2023-05-24T00:11:18;96875.19;;;9.27;100.00
32933;BME280;19444;50.518;10.870;2023-05-24T00:14:15;96867.09;;;9.13;100.00
32933;BME280;19444;50.518;10.870;2023-05-24T00:17:12;96876.28;;;9.26;100.00
32933;BME280;19444;50.518;10.870;2023-05-24T00:20:10;96877.09;;;9.26;100.00
32933;BME280;19444;50.518;10.870;2023-05-24T00:23:08;96881.53;;;8.93;100.00
32933;BME280;19444;50.518;10.870;2023-05-24T00:26:05;96888.13;;;9.20;100.00
32933;BME280;19444;50.518;10.870;2023-05-24T00:29:02;96887.31;;;8.81;100.00
32933;BME280;19444;50.518;10.870;2023-05-24T00:31:59;96882.75;;;8.58;100.00
32933;BME280;19444;50.518;10.870;2023-05-24T00:34:56;96880.56;;;9.08;100.00
32933;BME280;19444;50.518;10.870;2023-05-24T00:37:53;96876.00;;;9.08;100.00
32933;BME280;19444;50.518;10.870;2023-05-24T00:40:50;96880.59;;;9.03;100.00
32933;BME280;19444;50.518;10.870;2023-05-24T00:43:47;96873.91;;;9.43;100.00
32933;BME280;19444;50.518;10.870;2023-05-24T00:46:44;96874.44;;;8.83;100.00
32933;BME280;19444;50.518;10.870;2023-05-24T00:49:41;96876.78;;;9.28;100.00
32933;BME280;19444;50.518;10.870;2023-05-24T00:52:40;96867.81;;;9.37;100.00
32933;BME280;19444;50.518;10.870;2023-05-24T00:55:37;96873.25;;;9.51;100.00
32933;BME280;19444;50.518;10.870;2023-05-24T00:58:34;96875.94;;;8.71;100.00
32933;BME280;19444;50.518;10.870;2023-05-24T01:01:31;96871.44;;;9.47;100.00
32933;BME280;19444;50.518;10.870;2023-05-24T01:04:28;96870.00;;;9.17;100.00
32933;BME280;19444;50.518;10.870;2023-05-24T01:10:34;96874.25;;;9.55;100.00
32933;BME280;19444;50.518;10.870;2023-05-24T01:13:52;96877.66;;;9.23;100.00
32933;BME280;19444;50.518;10.870;2023-05-24T01:17:22;96867.31;;;9.54;100.00
32933;BME280;19444;50.518;10.870;2023-05-24T01:20:22;96866.34;;;9.64;100.00
32933;BME280;19444;50.518;10.870;2023-05-24T01:27:10;96859.13;;;9.64;100.00
32933;BME280;19444;50.518;10.870;2023-05-24T01:30:08;96859.88;;;9.84;100.00
32933;BME280;19444;50.518;10.870;2023-05-24T01:33:05;96865.50;;;9.50;100.00
32933;BME280;19444;50.518;10.870;2023-05-24T01:36:02;96861.88;;;9.92;100.00
32933;BME280;19444;50.518;10.870;2023-05-24T01:38:59;96857.72;;;10.00;100.00
32933;BME280;19444;50.518;10.870;2023-05-24T01:42:34;96857.19;;;9.32;100.00
32933;BME280;19444;50.518;10.870;2023-05-24T01:49:25;96863.69;;;9.45;100.00
32933;BME280;19444;50.518;10.870;2023-05-24T01:52:27;96866.66;;;8.87;100.00
32933;BME280;19444;50.518;10.870;2023-05-24T01:55:27;96860.72;;;9.47;100.00
32933;BME280;19444;50.518;10.870;2023-05-24T01:58:28;96854.75;;;8.55;100.00
32933;BME280;19444;50.518;10.870;2023-05-24T02:01:26;96856.91;;;8.53;100.00
32933;BME280;19444;50.518;10.870;2023-05-24T02:04:23;96848.16;;;9.28;100.00
32933;BME280;19444;50.518;10.870;2023-05-24T02:07:20;96855.09;;;9.48;100.00
32933;BME280;19444;50.518;10.870;2023-05-24T02:10:18;96861.72;;;9.69;100.00
32933;BME280;19444;50.518;10.870;2023-05-24T02:13:14;96859.72;;;9.43;100.00
32933;BME280;19444;50.518;10.870;2023-05-24T02:16:13;96861.69;;;9.18;100.00
32933;BME280;19444;50.518;10.870;2023-05-24T02:19:11;96860.66;;;9.14;100.00
32933;BME280;19444;50.518;10.870;2023-05-24T02:22:08;96852.63;;;8.95;100.00
32933;BME280;19444;50.518;10.870;2023-05-24T02:25:05;96856.13;;;9.15;100.00
32933;BME280;19444;50.518;10.870;2023-05-24T02:28:03;96855.25;;;9.38;100.00
32933;BME280;19444;50.518;10.870;2023-05-24T02:31:00;96849.63;;;9.21;100.00
32933;BME280;19444;50.518;10.870;2023-05-24T02:33:57;96843.31;;;9.11;100.00
32933;BME280;19444;50.518;10.870;2023-05-24T02:36:54;96855.53;;;9.36;100.00
32933;BME280;19444;50.518;10.870;2023-05-24T02:39:52;96849.31;;;9.03;100.00
32933;BME280;19444;50.518;10.870;2023-05-24T02:42:49;96837.25;;;8.44;100.00
32933;BME280;19444;50.518;10.870;2023-05-24T02:45:46;96846.03;;;8.21;100.00
32933;BME280;19444;50.518;10.870;2023-05-24T02:48:43;96843.97;;;8.42;100.00
32933;BME280;19444;50.518;10.870;2023-05-24T02:51:40;96847.56;;;8.27;100.00
32933;BME280;19444;50.518;10.870;2023-05-24T02:54:36;96846.16;;;8.59;100.00
32933;BME280;19444;50.518;10.870;2023-05-24T02:57:33;96839.66;;;8.89;100.00
32933;BME280;19444;50.518;10.870;2023-05-24T03:00:30;96842.53;;;8.49;100.00
32933;BME280;19444;50.518;10.870;2023-05-24T03:03:27;96855.28;;;8.05;100.00
32933;BME280;19444;50.518;10.870;2023-05-24T03:06:24;96842.50;;;8.25;100.00
32933;BME280;19444;50.518;10.870;2023-05-24T03:09:21;96847.28;;;8.05;100.00
32933;BME280;19444;50.518;10.870;2023-05-24T03:12:18;96839.97;;;8.63;100.00
32933;BME280;19444;50.518;10.870;2023-05-24T03:15:15;96843.91;;;8.47;100.00
32933;BME280;19444;50.518;10.870;2023-05-24T03:18:12;96841.50;;;8.69;100.00
32933;BME280;19444;50.518;10.870;2023-05-24T03:21:09;96840.63;;;8.26;100.00
32933;BME280;19444;50.518;10.870;2023-05-24T03:24:06;96840.06;;;8.05;100.00
32933;BME280;19444;50.518;10.870;2023-05-24T03:27:05;96839.06;;;8.49;100.00
32933;BME280;19444;50.518;10.870;2023-05-24T03:30:02;96824.84;;;8.96;100.00
32933;BME280;19444;50.518;10.870;2023-05-24T03:33:02;96834.97;;;8.57;100.00
32933;BME280;19444;50.518;10.870;2023-05-24T03:35:59;96838.22;;;8.53;100.00
32933;BME280;19444;50.518;10.870;2023-05-24T03:38:56;96834.97;;;8.57;100.00
32933;BME280;19444;50.518;10.870;2023-05-24T03:41:54;96843.72;;;8.14;100.00
32933;BME280;19444;50.518;10.870;2023-05-24T03:44:51;96842.06;;;8.18;100.00
32933;BME280;19444;50.518;10.870;2023-05-24T03:47:48;96839.88;;;8.68;100.00
32933;BME280;19444;50.518;10.870;2023-05-24T03:50:46;96837.75;;;8.70;100.00
32933;BME280;19444;50.518;10.870;2023-05-24T03:53:43;96837.63;;;8.09;100.00
32933;BME280;19444;50.518;10.870;2023-05-24T03:56:40;96845.16;;;7.73;100.00
32933;BME280;19444;50.518;10.870;2023-05-24T03:59:37;96848.34;;;8.27;100.00
32933;BME280;19444;50.518;10.870;2023-05-24T04:02:36;96859.53;;;8.06;100.00
32933;BME280;19444;50.518;10.870;2023-05-24T04:05:34;96856.38;;;8.27;100.00
32933;BME280;19444;50.518;10.870;2023-05-24T04:08:31;96868.94;;;8.27;100.00
32933;BME280;19444;50.518;10.870;2023-05-24T04:11:28;96868.88;;;8.32;100.00
32933;BME280;19444;50.518;10.870;2023-05-24T04:14:25;96867.34;;;8.50;100.00
32933;BME280;19444;50.518;10.870;2023-05-24T04:17:22;96864.97;;;8.48;100.00
32933;BME280;19444;50.518;10.870;2023-05-24T04:20:21;96872.16;;;8.53;100.00
32933;BME280;19444;50.518;10.870;2023-05-24T04:23:22;96872.88;;;8.59;100.00
32933;BME280;19444;50.518;10.870;2023-05-24T04:26:19;96879.66;;;8.22;100.00
32933;BME280;19444;50.518;10.870;2023-05-24T04:29:17;96874.88;;;8.72;100.00
32933;BME280;19444;50.518;10.870;2023-05-24T04:32:15;96875.44;;;8.69;100.00
32933;BME280;19444;50.518;10.870;2023-05-24T04:35:13;96871.00;;;8.59;100.00
32933;BME280;19444;50.518;10.870;2023-05-24T04:38:11;96873.03;;;8.67;100.00
32933;BME280;19444;50.518;10.870;2023-05-24T04:41:09;96875.81;;;8.57;100.00
32933;BME280;19444;50.518;10.870;2023-05-24T04:44:06;96872.97;;;8.96;100.00
32933;BME280;19444;50.518;10.870;2023-05-24T04:47:03;96860.16;;;8.50;100.00
32933;BME280;19444;50.518;10.870;2023-05-24T04:50:01;96872.88;;;8.35;100.00
32933;BME280;19444;50.518;10.870;2023-05-24T04:52:57;96866.69;;;8.63;100.00
32933;BME280;19444;50.518;10.870;2023-05-24T04:55:54;96870.94;;;8.64;100.00
32933;BME280;19444;50.518;10.870;2023-05-24T04:58:51;96876.69;;;8.52;100.00
32933;BME280;19444;50.518;10.870;2023-05-24T05:01:48;96879.53;;;8.08;100.00
32933;BME280;19444;50.518;10.870;2023-05-24T05:04:45;96883.00;;;7.80;100.00
32933;BME280;19444;50.518;10.870;2023-05-24T05:07:42;96885.97;;;8.31;100.00
32933;BME280;19444;50.518;10.870;2023-05-24T05:10:39;96880.81;;;8.11;100.00
32933;BME280;19444;50.518;10.870;2023-05-24T05:13:36;96884.34;;;8.06;100.00
32933;BME280;19444;50.518;10.870;2023-05-24T05:16:34;96883.50;;;8.11;100.00
32933;BME280;19444;50.518;10.870;2023-05-24T05:19:32;96881.81;;;7.91;100.00
32933;BME280;19444;50.518;10.870;2023-05-24T05:22:29;96878.91;;;8.69;100.00
32933;BME280;19444;50.518;10.870;2023-05-24T05:25:27;96894.78;;;8.03;100.00
32933;BME280;19444;50.518;10.870;2023-05-24T05:28:24;96883.34;;;8.55;100.00
32933;BME280;19444;50.518;10.870;2023-05-24T05:31:22;96883.66;;;8.96;100.00
32933;BME280;19444;50.518;10.870;2023-05-24T05:34:18;96875.41;;;9.11;100.00
32933;BME280;19444;50.518;10.870;2023-05-24T05:37:16;96884.47;;;9.34;100.00
32933;BME280;19444;50.518;10.870;2023-05-24T05:40:13;96890.66;;;9.30;100.00
32933;BME280;19444;50.518;10.870;2023-05-24T05:43:10;96890.09;;;9.33;100.00
32933;BME280;19444;50.518;10.870;2023-05-24T05:46:07;96888.28;;;9.47;100.00
32933;BME280;19444;50.518;10.870;2023-05-24T05:49:05;96894.03;;;9.73;100.00
32933;BME280;19444;50.518;10.870;2023-05-24T05:52:04;96898.75;;;9.62;100.00
32933;BME280;19444;50.518;10.870;2023-05-24T05:55:01;96891.59;;;9.58;100.00
32933;BME280;19444;50.518;10.870;2023-05-24T05:57:58;96892.44;;;9.72;100.00
32933;BME280;19444;50.518;10.870;2023-05-24T06:00:55;96893.56;;;9.33;100.00
32933;BME280;19444;50.518;10.870;2023-05-24T06:03:52;96888.94;;;9.39;100.00
32933;BME280;19444;50.518;10.870;2023-05-24T06:06:49;96893.75;;;9.56;100.00
32933;BME280;19444;50.518;10.870;2023-05-24T06:09:46;96895.78;;;9.64;100.00
32933;BME280;19444;50.518;10.870;2023-05-24T06:12:43;96891.84;;;9.75;100.00
32933;BME280;19444;50.518;10.870;2023-05-24T06:15:39;96903.44;;;9.71;100.00
32933;BME280;19444;50.518;10.870;2023-05-24T06:18:36;96901.38;;;10.00;100.00
32933;BME280;19444;50.518;10.870;2023-05-24T06:21:34;96910.81;;;9.79;100.00
32933;BME280;19444;50.518;10.870;2023-05-24T06:24:32;96910.44;;;9.66;100.00
32933;BME280;19444;50.518;10.870;2023-05-24T06:27:30;96910.69;;;9.70;100.00
32933;BME280;19444;50.518;10.870;2023-05-24T06:30:27;96910.69;;;10.03;100.00
32933;BME280;19444;50.518;10.870;2023-05-24T06:33:24;96904.47;;;9.56;100.00
32933;BME280;19444;50.518;10.870;2023-05-24T06:36:21;96911.31;;;9.81;100.00
32933;BME280;19444;50.518;10.870;2023-05-24T06:39:18;96921.47;;;9.65;100.00
32933;BME280;19444;50.518;10.870;2023-05-24T06:42:15;96921.38;;;9.89;100.00
32933;BME280;19444;50.518;10.870;2023-05-24T06:45:12;96916.59;;;10.18;100.00
32933;BME280;19444;50.518;10.870;2023-05-24T06:48:09;96926.97;;;10.06;100.00
32933;BME280;19444;50.518;10.870;2023-05-24T06:51:06;96926.19;;;9.87;100.00
32933;BME280;19444;50.518;10.870;2023-05-24T06:54:03;96929.13;;;10.04;100.00
32933;BME280;19444;50.518;10.870;2023-05-24T06:57:00;96939.16;;;10.12;100.00
32933;BME280;19444;50.518;10.870;2023-05-24T06:59:57;96937.13;;;10.56;98.26
32933;BME280;19444;50.518;10.870;2023-05-24T07:02:54;96947.03;;;10.55;97.75
32933;BME280;19444;50.518;10.870;2023-05-24T07:05:52;96940.78;;;10.46;95.91
32933;BME280;19444;50.518;10.870;2023-05-24T07:08:49;96935.25;;;10.70;95.47
32933;BME280;19444;50.518;10.870;2023-05-24T07:11:46;96942.59;;;10.64;97.39
32933;BME280;19444;50.518;10.870;2023-05-24T07:14:43;96948.75;;;10.92;91.50
32933;BME280;19444;50.518;10.870;2023-05-24T07:17:39;96953.50;;;10.95;92.27
32933;BME280;19444;50.518;10.870;2023-05-24T07:20:37;96945.69;;;10.99;92.83
32933;BME280;19444;50.518;10.870;2023-05-24T07:23:34;96945.56;;;11.04;91.76
32933;BME280;19444;50.518;10.870;2023-05-24T07:26:32;96943.19;;;11.02;90.80
32933;BME280;19444;50.518;10.870;2023-05-24T07:29:29;96955.88;;;11.24;90.21
32933;BME280;19444;50.518;10.870;2023-05-24T07:32:26;96953.22;;;11.10;93.33
32933;BME280;19444;50.518;10.870;2023-05-24T07:35:24;96955.28;;;11.27;90.77
32933;BME280;19444;50.518;10.870;2023-05-24T07:38:21;96958.19;;;11.17;90.40
32933;BME280;19444;50.518;10.870;2023-05-24T07:41:18;96951.50;;;11.15;89.99
32933;BME280;19444;50.518;10.870;2023-05-24T07:44:15;96951.53;;;11.01;91.46
32933;BME280;19444;50.518;10.870;2023-05-24T07:47:12;96953.00;;;11.34;95.08
32933;BME280;19444;50.518;10.870;2023-05-24T07:50:09;96948.59;;;11.52;94.60
32933;BME280;19444;50.518;10.870;2023-05-24T07:53:07;96942.69;;;10.87;98.17
32933;BME280;19444;50.518;10.870;2023-05-24T07:56:04;96943.38;;;11.20;94.38
32933;BME280;19444;50.518;10.870;2023-05-24T07:59:01;96959.66;;;10.96;86.29
32933;BME280;19444;50.518;10.870;2023-05-24T08:02:02;96948.44;;;11.21;81.18
32933;BME280;19444;50.518;10.870;2023-05-24T08:05:01;96944.25;;;11.15;81.21
32933;BME280;19444;50.518;10.870;2023-05-24T08:07:58;96949.06;;;10.91;93.00
32933;BME280;19444;50.518;10.870;2023-05-24T08:10:55;96950.63;;;11.05;88.64
32933;BME280;19444;50.518;10.870;2023-05-24T08:13:52;96954.66;;;11.44;91.10
32933;BME280;19444;50.518;10.870;2023-05-24T08:16:49;96958.84;;;10.54;93.63
32933;BME280;19444;50.518;10.870;2023-05-24T08:19:46;96965.91;;;11.05;92.69
32933;BME280;19444;50.518;10.870;2023-05-24T08:22:43;96966.56;;;11.52;78.75
32933;BME280;19444;50.518;10.870;2023-05-24T08:25:40;96960.25;;;11.70;83.51
32933;BME280;19444;50.518;10.870;2023-05-24T08:28:37;96961.34;;;11.83;90.75
32933;BME280;19444;50.518;10.870;2023-05-24T08:31:34;96968.53;;;11.60;86.55
32933;BME280;19444;50.518;10.870;2023-05-24T08:34:32;96957.59;;;11.56;78.36
32933;BME280;19444;50.518;10.870;2023-05-24T08:37:29;96962.06;;;11.25;84.20
32933;BME280;19444;50.518;10.870;2023-05-24T08:40:27;96972.06;;;11.05;84.19
32933;BME280;19444;50.518;10.870;2023-05-24T08:43:25;96970.72;;;11.58;90.91
32933;BME280;19444;50.518;10.870;2023-05-24T08:46:28;96971.28;;;11.19;82.87
32933;BME280;19444;50.518;10.870;2023-05-24T08:49:25;96975.47;;;10.70;92.42
32933;BME280;19444;50.518;10.870;2023-05-24T08:52:22;96972.06;;;11.05;88.99
32933;BME280;19444;50.518;10.870;2023-05-24T08:55:20;96970.69;;;11.22;84.82
32933;BME280;19444;50.518;10.870;2023-05-24T08:58:18;96970.88;;;10.24;95.37
32933;BME280;19444;50.518;10.870;2023-05-24T09:01:16;96965.03;;;10.82;90.88
32933;BME280;19444;50.518;10.870;2023-05-24T09:04:13;96968.09;;;11.44;88.69
32933;BME280;19444;50.518;10.870;2023-05-24T09:07:13;96962.66;;;11.58;89.47
32933;BME280;19444;50.518;10.870;2023-05-24T09:10:11;96977.72;;;11.45;86.42
32933;BME280;19444;50.518;10.870;2023-05-24T09:13:08;96968.31;;;11.84;86.42
32933;BME280;19444;50.518;10.870;2023-05-24T09:16:06;96967.03;;;11.81;83.01
32933;BME280;19444;50.518;10.870;2023-05-24T09:19:03;96961.03;;;12.07;83.09
32933;BME280;19444;50.518;10.870;2023-05-24T09:22:00;96962.66;;;11.58;84.47
32933;BME280;19444;50.518;10.870;2023-05-24T09:25:00;96970.59;;;10.86;82.50
32933;BME280;19444;50.518;10.870;2023-05-24T09:27:57;96971.28;;;11.68;83.90
32933;BME280;19444;50.518;10.870;2023-05-24T09:31:01;96969.59;;;12.31;84.44
32933;BME280;19444;50.518;10.870;2023-05-24T09:34:03;96977.44;;;11.69;79.65
32933;BME280;19444;50.518;10.870;2023-05-24T09:37:05;96972.31;;;11.95;82.90
32933;BME280;19444;50.518;10.870;2023-05-24T09:40:04;96973.56;;;12.11;80.42
32933;BME280;19444;50.518;10.870;2023-05-24T09:43:04;96965.19;;;12.35;81.21
32933;BME280;19444;50.518;10.870;2023-05-24T09:46:03;96966.59;;;12.10;81.35
32933;BME280;19444;50.518;10.870;2023-05-24T09:49:01;96968.09;;;12.25;76.67
32933;BME280;19444;50.518;10.870;2023-05-24T09:52:02;96966.31;;;12.65;76.88
32933;BME280;19444;50.518;10.870;2023-05-24T09:54:59;96968.59;;;12.49;78.70
32933;BME280;19444;50.518;10.870;2023-05-24T09:58:06;96973.38;;;12.08;76.29
32933;BME280;19444;50.518;10.870;2023-05-24T10:01:06;96973.84;;;12.55;86.24
32933;BME280;19444;50.518;10.870;2023-05-24T10:04:03;96961.94;;;12.24;79.70
32933;BME280;19444;50.518;10.870;2023-05-24T10:07:23;96966.41;;;12.07;75.67
32933;BME280;19444;50.518;10.870;2023-05-24T10:10:21;96973.44;;;12.70;75.82
32933;BME280;19444;50.518;10.870;2023-05-24T10:13:21;96961.56;;;12.40;77.13
32933;BME280;19444;50.518;10.870;2023-05-24T10:16:18;96967.09;;;13.54;76.42
32933;BME280;19444;50.518;10.870;2023-05-24T10:19:15;96964.88;;;13.64;67.55
32933;BME280;19444;50.518;10.870;2023-05-24T10:22:13;96968.47;;;13.34;71.19
32933;BME280;19444;50.518;10.870;2023-05-24T10:25:20;96969.88;;;12.83;69.03
32933;BME280;19444;50.518;10.870;2023-05-24T10:28:17;96968.84;;;13.76;70.02
32933;BME280;19444;50.518;10.870;2023-05-24T10:31:27;96967.03;;;12.88;66.02
32933;BME280;19444;50.518;10.870;2023-05-24T10:34:25;96958.84;;;13.50;67.13
32933;BME280;19444;50.518;10.870;2023-05-24T10:37:24;96963.59;;;13.45;68.38
32933;BME280;19444;50.518;10.870;2023-05-24T10:40:22;96962.94;;;13.39;63.09
32933;BME280;19444;50.518;10.870;2023-05-24T10:43:22;96971.88;;;14.00;71.49
32933;BME280;19444;50.518;10.870;2023-05-24T10:46:19;96975.84;;;14.03;66.69
32933;BME280;19444;50.518;10.870;2023-05-24T10:49:18;96979.13;;;13.48;66.40
32933;BME280;19444;50.518;10.870;2023-05-24T10:52:15;96968.97;;;14.40;65.82
32933;BME280;19444;50.518;10.870;2023-05-24T10:55:13;96974.84;;;14.24;63.72
32933;BME280;19444;50.518;10.870;2023-05-24T10:58:11;96976.28;;;14.13;58.33
32933;BME280;19444;50.518;10.870;2023-05-24T11:01:13;96972.81;;;13.78;55.74
32933;BME280;19444;50.518;10.870;2023-05-24T11:04:20;96971.22;;;13.86;72.16
32933;BME280;19444;50.518;10.870;2023-05-24T11:07:18;96979.44;;;13.55;61.24
32933;BME280;19444;50.518;10.870;2023-05-24T11:10:15;96975.19;;;13.54;73.99
32933;BME280;19444;50.518;10.870;2023-05-24T11:13:18;96978.19;;;13.95;67.38
32933;BME280;19444;50.518;10.870;2023-05-24T11:16:45;96982.66;;;14.09;62.35
32933;BME280;19444;50.518;10.870;2023-05-24T11:19:53;96978.19;;;13.87;66.81
32933;BME280;19444;50.518;10.870;2023-05-24T11:22:51;96974.56;;;14.00;61.75
32933;BME280;19444;50.518;10.870;2023-05-24T11:25:49;96964.41;;;14.14;60.32
32933;BME280;19444;50.518;10.870;2023-05-24T11:28:46;96973.72;;;14.98;71.05
32933;BME280;19444;50.518;10.870;2023-05-24T11:31:58;96964.72;;;14.13;59.36
32933;BME280;19444;50.518;10.870;2023-05-24T11:35:01;96960.91;;;14.05;60.93
32933;BME280;19444;50.518;10.870;2023-05-24T11:37:58;96960.44;;;15.23;72.67
32933;BME280;19444;50.518;10.870;2023-05-24T11:40:57;96951.25;;;14.86;59.52
32933;BME280;19444;50.518;10.870;2023-05-24T11:43:54;96964.69;;;14.39;62.03
32933;BME280;19444;50.518;10.870;2023-05-24T11:46:59;96962.38;;;14.84;70.67
32933;BME280;19444;50.518;10.870;2023-05-24T11:49:56;96962.00;;;14.30;62.27
32933;BME280;19444;50.518;10.870;2023-05-24T11:52:52;96965.06;;;13.94;67.54
32933;BME280;19444;50.518;10.870;2023-05-24T11:55:51;96964.22;;;14.37;70.74
32933;BME280;19444;50.518;10.870;2023-05-24T11:58:49;96966.59;;;14.30;60.40
32933;BME280;19444;50.518;10.870;2023-05-24T12:01:46;96965.84;;;14.93;62.59
32933;BME280;19444;50.518;10.870;2023-05-24T12:04:43;96965.03;;;14.37;59.04
32933;BME280;19444;50.518;10.870;2023-05-24T12:07:41;96958.31;;;14.43;59.67
32933;BME280;19444;50.518;10.870;2023-05-24T12:10:44;96958.75;;;14.71;63.20
32933;BME280;19444;50.518;10.870;2023-05-24T12:13:42;96955.53;;;14.87;57.51
32933;BME280;19444;50.518;10.870;2023-05-24T12:16:42;96958.19;;;15.25;62.06
32933;BME280;19444;50.518;10.870;2023-05-24T12:19:42;96943.53;;;17.09;53.23
32933;BME280;19444;50.518;10.870;2023-05-24T12:22:50;96938.66;;;18.03;53.62
32933;BME280;19444;50.518;10.870;2023-05-24T12:25:48;96942.16;;;17.76;50.43
32933;BME280;19444;50.518;10.870;2023-05-24T12:28:51;96936.81;;;18.35;49.29
32933;BME280;19444;50.518;10.870;2023-05-24T12:31:49;96926.16;;;19.37;48.94
32933;BME280;19444;50.518;10.870;2023-05-24T12:34:48;96935.53;;;16.55;54.40
32933;BME280;19444;50.518;10.870;2023-05-24T12:37:46;96930.25;;;16.13;60.43
32933;BME280;19444;50.518;10.870;2023-05-24T12:40:44;96923.34;;;17.83;49.85
32933;BME280;19444;50.518;10.870;2023-05-24T12:43:59;96918.56;;;18.04;49.86
32933;BME280;19444;50.518;10.870;2023-05-24T12:46:57;96937.91;;;16.44;49.80
32933;BME280;19444;50.518;10.870;2023-05-24T12:49:54;96927.84;;;17.91;56.15
32933;BME280;19444;50.518;10.870;2023-05-24T12:52:52;96930.84;;;17.74;48.26
32933;BME280;19444;50.518;10.870;2023-05-24T12:55:49;96918.06;;;19.06;53.64
32933;BME280;19444;50.518;10.870;2023-05-24T12:58:51;96931.56;;;18.86;50.00
32933;BME280;19444;50.518;10.870;2023-05-24T13:01:48;96928.63;;;18.63;48.50
32933;BME280;19444;50.518;10.870;2023-05-24T13:04:49;96911.69;;;20.03;49.12
32933;BME280;19444;50.518;10.870;2023-05-24T13:07:49;96913.72;;;20.29;52.84
32933;BME280;19444;50.518;10.870;2023-05-24T13:10:46;96920.28;;;19.86;44.01
32933;BME280;19444;50.518;10.870;2023-05-24T13:13:45;96924.41;;;18.78;44.86
32933;BME280;19444;50.518;10.870;2023-05-24T13:16:41;96912.69;;;19.41;42.45
32933;BME280;19444;50.518;10.870;2023-05-24T13:19:39;96906.91;;;18.63;46.64
32933;BME280;19444;50.518;10.870;2023-05-24T13:22:38;96919.25;;;20.52;47.09
32933;BME280;19444;50.518;10.870;2023-05-24T13:25:35;96914.72;;;20.40;44.64
32933;BME280;19444;50.518;10.870;2023-05-24T13:28:33;96910.84;;;19.29;42.22
32933;BME280;19444;50.518;10.870;2023-05-24T13:31:30;96907.41;;;19.48;41.33
32933;BME280;19444;50.518;10.870;2023-05-24T13:34:27;96884.22;;;21.23;50.70
32933;BME280;19444;50.518;10.870;2023-05-24T13:37:24;96902.41;;;20.27;43.27
32933;BME280;19444;50.518;10.870;2023-05-24T13:40:21;96882.22;;;20.28;41.22
32933;BME280;19444;50.518;10.870;2023-05-24T13:43:20;96894.41;;;21.56;42.79
32933;BME280;19444;50.518;10.870;2023-05-24T13:46:17;96902.50;;;19.73;42.19
32933;BME280;19444;50.518;10.870;2023-05-24T13:49:14;96901.06;;;19.59;42.13
32933;BME280;19444;50.518;10.870;2023-05-24T13:52:11;96900.75;;;17.39;45.63
32933;BME280;19444;50.518;10.870;2023-05-24T13:55:09;96910.84;;;18.06;51.30
32933;BME280;19444;50.518;10.870;2023-05-24T13:58:06;96905.44;;;17.66;45.41
32933;BME280;19444;50.518;10.870;2023-05-24T14:01:03;96904.31;;;19.14;58.21
32933;BME280;19444;50.518;10.870;2023-05-24T14:04:01;96905.63;;;18.57;56.37
32933;BME280;19444;50.518;10.870;2023-05-24T14:06:59;96903.22;;;18.84;64.04
32933;BME280;19444;50.518;10.870;2023-05-24T14:09:58;96910.72;;;16.98;49.56
32933;BME280;19444;50.518;10.870;2023-05-24T14:12:55;96911.91;;;17.49;50.37
32933;BME280;19444;50.518;10.870;2023-05-24T14:16:12;96917.47;;;17.28;51.31
32933;BME280;19444;50.518;10.870;2023-05-24T14:19:09;96905.53;;;20.06;58.19
32933;BME280;19444;50.518;10.870;2023-05-24T14:22:06;96903.03;;;19.98;48.35
32933;BME280;19444;50.518;10.870;2023-05-24T14:25:04;96901.94;;;18.50;46.45
32933;BME280;19444;50.518;10.870;2023-05-24T14:28:01;96905.84;;;18.36;49.50
32933;BME280;19444;50.518;10.870;2023-05-24T14:31:02;96901.88;;;19.44;53.60
32933;BME280;19444;50.518;10.870;2023-05-24T14:33:59;96904.38;;;20.69;48.63
32933;BME280;19444;50.518;10.870;2023-05-24T14:36:56;96905.03;;;20.62;50.52
32933;BME280;19444;50.518;10.870;2023-05-24T14:39:53;96898.34;;;20.17;50.05
32933;BME280;19444;50.518;10.870;2023-05-24T14:42:51;96912.94;;;19.36;42.50
32933;BME280;19444;50.518;10.870;2023-05-24T14:45:47;96908.66;;;19.19;44.79
32933;BME280;19444;50.518;10.870;2023-05-24T14:48:45;96902.59;;;18.46;46.92
32933;BME280;19444;50.518;10.870;2023-05-24T14:51:46;96911.00;;;17.98;48.30
32933;BME280;19444;50.518;10.870;2023-05-24T14:54:44;96913.53;;;19.45;47.27
32933;BME280;19444;50.518;10.870;2023-05-24T14:57:41;96915.63;;;18.69;53.44
32933;BME280;19444;50.518;10.870;2023-05-24T15:00:40;96923.84;;;18.01;44.56
32933;BME280;19444;50.518;10.870;2023-05-24T15:03:38;96917.72;;;17.11;44.57
32933;BME280;19444;50.518;10.870;2023-05-24T15:06:35;96903.16;;;19.66;45.38
32933;BME280;19444;50.518;10.870;2023-05-24T15:09:32;96903.94;;;20.05;44.44
32933;BME280;19444;50.518;10.870;2023-05-24T15:12:29;96897.50;;;20.13;42.05
32933;BME280;19444;50.518;10.870;2023-05-24T15:15:27;96903.84;;;19.28;41.89
32933;BME280;19444;50.518;10.870;2023-05-24T15:18:26;96911.53;;;17.75;50.32
32933;BME280;19444;50.518;10.870;2023-05-24T15:21:23;96916.88;;;17.35;45.12
32933;BME280;19444;50.518;10.870;2023-05-24T15:24:20;96918.00;;;17.99;51.66
32933;BME280;19444;50.518;10.870;2023-05-24T15:27:17;96922.59;;;18.54;45.79
32933;BME280;19444;50.518;10.870;2023-05-24T15:30:14;96914.56;;;18.89;46.26
32933;BME280;19444;50.518;10.870;2023-05-24T15:33:13;96917.78;;;18.47;45.32
32933;BME280;19444;50.518;10.870;2023-05-24T15:36:12;96916.94;;;18.91;42.78
32933;BME280;19444;50.518;10.870;2023-05-24T15:39:12;96928.97;;;17.90;46.62
32933;BME280;19444;50.518;10.870;2023-05-24T15:42:09;96929.97;;;17.57;44.77
32933;BME280;19444;50.518;10.870;2023-05-24T15:45:07;96919.84;;;17.18;51.50